Terminal Aerodrome Forecast
Issued by NWS

Home | Current Version | Previous Version | Text Only | Print | Product List | Glossary On
Versions: 1 2 3 4 5 6 7 8 9 10 11 12 13 14 15 16 17 18 19 20 21
000
FTUS43 KOAX 281120
TAFCDR
TAF
KCDR 281120Z 2812/2912 20007KT P6SM SCT120
     FM281800 32008KT P6SM VCTS SCT040CB BKN070
      TEMPO 2820/2824 36013KT 3SM -TSRA BKN050CB
     FM290400 30006KT P6SM BKN100=

USA.gov is the U.S. government's official web portal to all federal, state and local government web resources and services.